createdAt,value
2019-04-28T00:01:35.531Z,8.30
2019-04-28T00:04:05.269Z,8.30
2019-04-28T00:06:34.985Z,8.30
2019-04-28T00:09:06.250Z,8.30
2019-04-28T00:11:36.159Z,8.20
2019-04-28T00:14:08.235Z,8.20
2019-04-28T00:16:37.409Z,8.10
2019-04-28T00:19:07.283Z,8.10
2019-04-28T00:21:58.239Z,8.10
2019-04-28T00:24:55.921Z,8.10
2019-04-28T00:27:25.727Z,8.10
2019-04-28T00:29:55.431Z,8.20
2019-04-28T00:32:25.287Z,8.20
2019-04-28T00:34:55.169Z,8.20
2019-04-28T00:37:32.873Z,8.20
2019-04-28T00:40:02.683Z,8.20
2019-04-28T00:42:32.554Z,8.20
2019-04-28T00:45:02.362Z,8.20
2019-04-28T00:47:32.150Z,8.20
2019-04-28T00:50:02.290Z,8.20
2019-04-28T00:52:32.159Z,8.10
2019-04-28T00:55:02.012Z,8.10
2019-04-28T00:57:31.763Z,8.10
2019-04-28T01:00:02.421Z,8.10
2019-04-28T01:02:41.421Z,8.00
2019-04-28T01:05:11.454Z,8.00
2019-04-28T01:07:41.537Z,8.00
2019-04-28T01:10:13.125Z,8.10
2019-04-28T01:12:42.855Z,8.10
2019-04-28T01:15:39.653Z,8.10
2019-04-28T01:18:22.170Z,8.10
2019-04-28T01:20:51.887Z,8.10
2019-04-28T01:23:21.825Z,8.20
2019-04-28T01:25:51.591Z,8.10
2019-04-28T01:28:21.340Z,8.10
2019-04-28T01:31:21.106Z,8.10
2019-04-28T01:34:10.347Z,8.00
2019-04-28T01:36:40.444Z,8.10
2019-04-28T01:39:10.281Z,8.00
2019-04-28T01:41:40.025Z,8.00
2019-04-28T01:44:10.282Z,8.00
2019-04-28T01:46:40.222Z,8.00
2019-04-28T01:49:10.001Z,8.00
2019-04-28T01:51:41.469Z,8.10
2019-04-28T01:54:11.796Z,8.10
2019-04-28T01:56:41.584Z,8.20
2019-04-28T01:59:11.286Z,8.20
2019-04-28T02:01:41.143Z,8.20
2019-04-28T02:04:10.867Z,8.20
2019-04-28T02:06:40.568Z,8.20
2019-04-28T02:09:10.599Z,8.10
2019-04-28T02:11:41.274Z,8.00
2019-04-28T02:14:11.067Z,8.00
2019-04-28T02:16:40.805Z,8.00
2019-04-28T02:19:10.783Z,7.90
2019-04-28T02:21:55.322Z,7.90
2019-04-28T02:24:32.241Z,7.80
2019-04-28T02:27:02.078Z,7.90
2019-04-28T02:29:32.050Z,7.90
2019-04-28T02:32:02.593Z,7.90
2019-04-28T02:34:32.440Z,7.90
2019-04-28T02:37:02.344Z,7.90
2019-04-28T02:39:32.056Z,7.90
2019-04-28T02:42:02.039Z,7.80
2019-04-28T02:44:35.076Z,7.70
2019-04-28T02:47:03.446Z,7.60
2019-04-28T02:49:57.053Z,7.50
2019-04-28T02:52:44.258Z,7.50
2019-04-28T02:55:14.145Z,7.40
2019-04-28T02:57:43.911Z,7.40
2019-04-28T03:00:13.903Z,7.40
2019-04-28T03:02:43.762Z,7.40
2019-04-28T03:05:13.555Z,7.40
2019-04-28T03:07:43.418Z,7.30
2019-04-28T03:10:13.205Z,7.30
2019-04-28T03:12:43.160Z,7.20
2019-04-28T03:15:13.006Z,7.20
2019-04-28T03:17:42.753Z,7.20
2019-04-28T03:20:12.973Z,7.10
2019-04-28T03:22:42.737Z,7.10
2019-04-28T03:25:20.499Z,7.10
2019-04-28T03:28:05.545Z,7.10
2019-04-28T03:31:36.893Z,7.00
2019-04-28T03:33:48.259Z,7.00
2019-04-28T03:36:15.597Z,6.90
2019-04-28T03:38:44.489Z,6.80
2019-04-28T03:41:14.312Z,6.80
2019-04-28T03:43:44.129Z,6.80
2019-04-28T03:46:20.566Z,6.80
2019-04-28T03:48:50.967Z,6.70
2019-04-28T03:51:21.330Z,6.60
2019-04-28T03:53:51.330Z,6.60
2019-04-28T03:56:21.107Z,6.60
2019-04-28T03:58:50.928Z,6.50
2019-04-28T04:01:20.939Z,6.50
2019-04-28T04:03:51.601Z,6.40
2019-04-28T04:06:22.693Z,6.30
2019-04-28T04:08:52.721Z,6.30
2019-04-28T04:11:35.259Z,6.30
2019-04-28T04:14:27.062Z,6.30
2019-04-28T04:17:05.233Z,6.30
2019-04-28T04:19:36.293Z,6.30
2019-04-28T04:22:06.154Z,6.30
2019-04-28T04:24:35.971Z,6.30
2019-04-28T04:27:05.667Z,6.20
2019-04-28T04:29:35.384Z,6.20
2019-04-28T04:32:15.559Z,6.20
2019-04-28T04:34:40.529Z,6.20
2019-04-28T04:37:12.212Z,6.20
2019-04-28T04:39:41.049Z,6.20
2019-04-28T04:42:10.872Z,6.20
2019-04-28T04:44:41.537Z,6.20
2019-04-28T04:47:12.502Z,6.20
2019-04-28T04:49:42.454Z,6.20
2019-04-28T04:52:12.593Z,6.20
2019-04-28T04:54:42.508Z,6.20
2019-04-28T04:57:12.448Z,6.20
2019-04-28T04:59:42.278Z,6.30
2019-04-28T05:02:29.320Z,6.30
2019-04-28T05:05:00.332Z,6.40
2019-04-28T05:07:40.232Z,6.40
2019-04-28T05:10:13.297Z,6.40
2019-04-28T05:12:45.005Z,6.50
2019-04-28T05:15:18.111Z,6.50
2019-04-28T05:17:50.127Z,6.50
2019-04-28T05:20:20.549Z,6.50
2019-04-28T05:23:00.638Z,6.60
2019-04-28T05:25:39.657Z,6.70
2019-04-28T05:28:10.497Z,6.90
2019-04-28T05:30:43.077Z,7.00
2019-04-28T05:33:30.661Z,7.10
2019-04-28T05:36:02.843Z,7.10
2019-04-28T05:38:31.000Z,7.10
2019-04-28T05:41:02.692Z,7.00
2019-04-28T05:43:35.441Z,7.00
2019-04-28T05:46:05.706Z,7.00
2019-04-28T05:48:51.535Z,7.00
2019-04-28T05:51:24.918Z,7.00
2019-04-28T05:54:14.939Z,7.10
2019-04-28T05:57:05.626Z,7.20
2019-04-28T05:59:50.656Z,7.20
2019-04-28T06:02:30.545Z,7.30
2019-04-28T06:05:00.205Z,7.30
2019-04-28T06:07:40.421Z,7.40
2019-04-28T06:10:17.289Z,7.50
2019-04-28T06:12:47.211Z,7.50
2019-04-28T06:15:17.413Z,7.60
2019-04-28T06:17:49.858Z,7.70
2019-04-28T06:20:20.250Z,7.80
2019-04-28T06:22:50.633Z,7.90
2019-04-28T06:25:20.727Z,7.90
2019-04-28T06:31:30.931Z,8.10
2019-04-28T06:34:00.697Z,8.20
2019-04-28T06:36:30.454Z,8.30
2019-04-28T06:39:00.202Z,8.30
2019-04-28T06:45:40.774Z,8.40
2019-04-28T06:51:35.787Z,9.10
2019-04-28T06:54:05.575Z,9.40
2019-04-28T06:56:35.399Z,9.50
2019-04-28T06:59:05.450Z,9.60
2019-04-28T07:01:35.267Z,9.70
2019-04-28T07:04:05.123Z,9.70
2019-04-28T07:06:34.875Z,9.80
2019-04-28T07:09:06.666Z,9.90
2019-04-28T07:11:36.347Z,9.90
2019-04-28T07:14:06.126Z,9.90
2019-04-28T07:16:35.942Z,10.00
2019-04-28T07:19:05.617Z,10.10
2019-04-28T07:21:43.236Z,10.20
2019-04-28T07:24:13.120Z,10.40
2019-04-28T07:26:42.824Z,10.70
2019-04-28T07:29:13.425Z,10.90
2019-04-28T07:31:43.248Z,11.30
2019-04-28T07:34:13.078Z,11.30
2019-04-28T07:36:43.610Z,11.30
2019-04-28T07:39:13.420Z,11.40
2019-04-28T07:41:43.213Z,11.40
2019-04-28T07:44:13.255Z,11.50
2019-04-28T07:46:43.030Z,11.50
2019-04-28T07:49:12.795Z,11.60
2019-04-28T07:52:01.595Z,11.50
2019-04-28T07:54:31.406Z,11.40
2019-04-28T07:57:01.085Z,11.20
2019-04-28T07:59:30.932Z,11.20
2019-04-28T08:02:00.767Z,11.30
2019-04-28T08:04:30.509Z,11.50
2019-04-28T08:07:00.323Z,11.70
2019-04-28T08:09:30.086Z,12.10
2019-04-28T08:11:59.909Z,12.40
2019-04-28T08:14:29.656Z,12.60
2019-04-28T08:16:59.442Z,12.70
2019-04-28T08:19:29.237Z,12.70
2019-04-28T08:21:59.036Z,12.90
2019-04-28T08:24:28.851Z,13.00
2019-04-28T08:26:58.790Z,13.20
2019-04-28T08:29:28.652Z,13.20
2019-04-28T08:32:15.585Z,13.20
2019-04-28T08:34:45.322Z,13.30
2019-04-28T08:37:15.096Z,13.20
2019-04-28T08:39:45.046Z,13.30
2019-04-28T08:42:14.718Z,13.60
2019-04-28T08:44:45.126Z,13.80
2019-04-28T08:47:15.120Z,13.90
2019-04-28T08:49:44.883Z,13.70
2019-04-28T08:52:14.702Z,13.50
2019-04-28T08:54:44.574Z,13.40
2019-04-28T08:57:14.538Z,13.10
2019-04-28T08:59:44.316Z,13.10
2019-04-28T09:02:14.213Z,13.10
2019-04-28T09:04:44.012Z,13.20
2019-04-28T09:07:13.823Z,13.30
2019-04-28T09:09:43.604Z,13.50
2019-04-28T09:12:13.415Z,13.50
2019-04-28T09:14:43.149Z,13.50
2019-04-28T09:17:13.022Z,13.60
2019-04-28T09:19:42.899Z,13.90
2019-04-28T09:22:12.668Z,14.30
2019-04-28T09:24:42.437Z,14.30
2019-04-28T09:27:12.197Z,14.30
2019-04-28T09:29:42.023Z,14.40
2019-04-28T09:32:11.891Z,14.30
2019-04-28T09:34:41.730Z,14.20
2019-04-28T09:37:11.551Z,14.20
2019-04-28T09:39:51.864Z,13.90
2019-04-28T09:42:39.015Z,14.00
2019-04-28T09:45:15.091Z,14.00
2019-04-28T09:47:45.293Z,14.00
2019-04-28T09:50:15.265Z,13.90
2019-04-28T09:52:45.129Z,13.80
2019-04-28T09:55:14.998Z,13.70
2019-04-28T09:57:44.664Z,13.80
2019-04-28T10:00:15.317Z,13.90
2019-04-28T10:02:45.153Z,13.90
2019-04-28T10:05:14.906Z,13.90
2019-04-28T10:07:44.603Z,13.90
2019-04-28T10:10:14.953Z,13.90
2019-04-28T10:12:44.728Z,13.70
2019-04-28T10:15:14.921Z,13.60
2019-04-28T10:17:44.688Z,13.50
2019-04-28T10:20:15.053Z,13.50
2019-04-28T10:22:44.789Z,13.60
2019-04-28T10:25:14.759Z,13.60
2019-04-28T10:27:44.527Z,13.70
2019-04-28T10:30:14.599Z,13.80
2019-04-28T10:32:44.259Z,13.90
2019-04-28T10:35:15.593Z,14.10
2019-04-28T10:37:45.750Z,14.30
2019-04-28T10:40:44.163Z,14.40
2019-04-28T10:43:13.952Z,14.60
2019-04-28T10:45:46.570Z,14.50
2019-04-28T10:48:16.422Z,14.50
2019-04-28T10:50:46.269Z,14.60
2019-04-28T10:53:16.156Z,14.60
2019-04-28T10:55:45.957Z,14.70
2019-04-28T10:58:15.853Z,14.60
2019-04-28T11:00:45.709Z,14.50
2019-04-28T11:03:15.532Z,14.50
2019-04-28T11:05:45.866Z,14.50
2019-04-28T11:08:49.581Z,14.40
2019-04-28T11:11:28.780Z,14.40
2019-04-28T11:13:58.651Z,14.30
2019-04-28T11:16:32.490Z,14.30
2019-04-28T11:19:02.335Z,14.30
2019-04-28T11:21:32.047Z,14.60
2019-04-28T11:24:01.762Z,14.80
2019-04-28T11:26:31.593Z,15.10
2019-04-28T11:29:01.505Z,15.10
2019-04-28T11:31:31.307Z,15.20
2019-04-28T11:34:13.327Z,15.40
2019-04-28T11:36:43.196Z,15.70
2019-04-28T11:39:17.624Z,15.70
2019-04-28T11:41:47.513Z,15.50
2019-04-28T11:44:17.288Z,15.50
2019-04-28T11:46:47.059Z,15.70
2019-04-28T11:49:16.816Z,15.60
2019-04-28T11:51:46.529Z,15.50
2019-04-28T11:54:16.683Z,15.60
2019-04-28T11:56:46.544Z,16.10
2019-04-28T11:59:16.490Z,16.80
2019-04-28T12:01:47.055Z,17.40
2019-04-28T12:04:21.105Z,17.40
2019-04-28T12:06:51.356Z,17.30
2019-04-28T12:09:35.765Z,17.10
2019-04-28T12:12:09.360Z,17.00
2019-04-28T12:15:01.077Z,17.40
2019-04-28T12:17:45.850Z,17.80
2019-04-28T12:20:21.095Z,17.70
2019-04-28T12:22:50.776Z,17.00
2019-04-28T12:25:20.492Z,16.90
2019-04-28T12:27:50.208Z,16.90
2019-04-28T12:30:19.998Z,16.70
2019-04-28T12:32:49.833Z,16.50
2019-04-28T12:35:19.586Z,16.40
2019-04-28T12:37:49.388Z,16.30
2019-04-28T12:40:19.255Z,15.80
2019-04-28T12:42:48.990Z,15.80
2019-04-28T12:45:18.761Z,16.40
2019-04-28T12:47:48.400Z,16.70
2019-04-28T12:50:23.974Z,16.80
2019-04-28T12:52:53.650Z,16.80
2019-04-28T12:55:23.460Z,17.00
2019-04-28T12:57:53.264Z,16.90
2019-04-28T13:00:43.460Z,16.60
2019-04-28T13:03:32.298Z,16.60
2019-04-28T13:06:05.785Z,16.60
2019-04-28T13:08:38.034Z,16.60
2019-04-28T13:11:07.775Z,16.60
2019-04-28T13:13:37.531Z,16.50
2019-04-28T13:16:07.389Z,16.50
2019-04-28T13:18:37.636Z,16.60
2019-04-28T13:21:07.396Z,16.70
2019-04-28T13:23:37.109Z,16.90
2019-04-28T13:26:06.950Z,17.20
2019-04-28T13:28:36.804Z,17.50
2019-04-28T13:31:06.736Z,17.60
2019-04-28T13:33:36.540Z,17.70
2019-04-28T13:36:14.720Z,17.60
2019-04-28T13:38:37.701Z,17.70
2019-04-28T13:41:07.425Z,17.70
2019-04-28T13:43:37.215Z,17.80
2019-04-28T13:46:07.144Z,18.30
2019-04-28T13:48:37.034Z,18.60
2019-04-28T13:51:06.914Z,18.60
2019-04-28T13:53:36.718Z,18.70
2019-04-28T13:56:06.517Z,18.90
2019-04-28T13:58:45.501Z,19.20
2019-04-28T14:01:37.310Z,18.90
2019-04-28T14:04:26.144Z,18.70
2019-04-28T14:06:59.562Z,18.60
2019-04-28T14:09:29.343Z,18.90
2019-04-28T14:11:59.041Z,19.20
2019-04-28T14:14:28.829Z,19.30
2019-04-28T14:16:58.571Z,19.30
2019-04-28T14:19:28.415Z,19.40
2019-04-28T14:21:58.135Z,18.40
2019-04-28T14:24:27.864Z,17.90
2019-04-28T14:26:57.698Z,18.30
2019-04-28T14:29:27.566Z,18.60
2019-04-28T14:31:57.323Z,18.60
2019-04-28T14:34:27.039Z,18.30
2019-04-28T14:36:56.714Z,18.40
2019-04-28T14:39:26.534Z,18.90
2019-04-28T14:41:56.273Z,19.30
2019-04-28T14:47:57.980Z,19.70
2019-04-28T14:50:27.728Z,19.80
2019-04-28T14:52:57.629Z,19.40
2019-04-28T14:55:27.426Z,19.20
2019-04-28T14:57:57.202Z,19.70
2019-04-28T15:00:33.497Z,19.90
2019-04-28T15:03:07.223Z,19.80
2019-04-28T15:06:18.278Z,20.10
2019-04-28T15:08:59.254Z,20.30
2019-04-28T15:11:39.138Z,19.90
2019-04-28T15:14:08.858Z,19.60
2019-04-28T15:16:38.656Z,19.40
2019-04-28T15:19:08.413Z,19.10
2019-04-28T15:21:38.236Z,19.60
2019-04-28T15:24:08.075Z,20.00
2019-04-28T15:26:37.859Z,19.80
2019-04-28T15:29:07.743Z,19.50
2019-04-28T15:31:37.865Z,19.80
2019-04-28T15:34:07.717Z,19.50
2019-04-28T15:36:37.595Z,18.90
2019-04-28T15:39:10.324Z,18.30
2019-04-28T15:41:40.071Z,17.70
2019-04-28T15:47:41.842Z,17.20
2019-04-28T15:50:11.754Z,17.50
2019-04-28T15:52:41.499Z,17.60
2019-04-28T15:55:13.471Z,17.70
2019-04-28T16:04:08.915Z,18.20
2019-04-28T16:06:38.679Z,17.70
2019-04-28T16:09:12.733Z,18.20
2019-04-28T16:11:45.541Z,17.90
2019-04-28T16:14:15.306Z,17.80
2019-04-28T16:16:45.260Z,18.00
2019-04-28T16:19:15.003Z,18.10
2019-04-28T16:21:44.893Z,17.80
2019-04-28T16:24:16.880Z,17.50
2019-04-28T16:26:47.204Z,17.60
2019-04-28T16:29:17.143Z,17.40
2019-04-28T16:31:47.451Z,17.00
2019-04-28T16:34:17.331Z,16.70
2019-04-28T16:36:47.230Z,16.30
2019-04-28T16:39:16.979Z,16.20
2019-04-28T16:41:51.433Z,16.30
2019-04-28T16:44:21.286Z,16.40
2019-04-28T16:46:51.134Z,16.50
2019-04-28T16:49:21.076Z,16.50
2019-04-28T16:51:50.770Z,16.60
2019-04-28T16:54:20.668Z,16.60
2019-04-28T16:57:06.762Z,16.60
2019-04-28T16:59:43.608Z,16.40
2019-04-28T17:02:38.717Z,16.50
2019-04-28T17:05:10.752Z,16.50
2019-04-28T17:07:52.010Z,16.70
2019-04-28T17:10:12.144Z,16.50
2019-04-28T17:12:42.137Z,16.60
2019-04-28T17:15:12.328Z,16.80
2019-04-28T17:17:42.145Z,16.70
2019-04-28T17:20:31.398Z,17.00
2019-04-28T17:23:15.766Z,17.30
2019-04-28T17:25:48.981Z,16.30
2019-04-28T17:28:22.353Z,15.40
2019-04-28T17:30:55.258Z,14.70
2019-04-28T17:33:27.178Z,14.70
2019-04-28T17:35:57.873Z,14.60
2019-04-28T17:38:28.714Z,14.20
2019-04-28T17:41:21.294Z,14.50
2019-04-28T17:43:54.921Z,14.20
2019-04-28T17:46:25.242Z,13.50
2019-04-28T17:49:02.399Z,13.20
2019-04-28T17:51:32.576Z,12.90
2019-04-28T17:54:12.200Z,12.80
2019-04-28T17:56:44.586Z,12.70
2019-04-28T17:59:14.825Z,12.70
2019-04-28T18:02:12.285Z,12.70
2019-04-28T18:05:17.427Z,12.80
2019-04-28T18:07:56.437Z,12.80
2019-04-28T18:10:31.611Z,12.70
2019-04-28T18:13:02.268Z,12.60
2019-04-28T18:16:07.942Z,12.50
2019-04-28T18:18:44.985Z,12.50
2019-04-28T18:21:15.048Z,12.40
2019-04-28T18:23:51.010Z,12.30
2019-04-28T18:26:24.842Z,12.20
2019-04-28T18:28:54.682Z,12.10
2019-04-28T18:32:00.931Z,12.00
2019-04-28T18:34:51.657Z,12.00
2019-04-28T18:37:43.494Z,12.00
2019-04-28T18:40:48.071Z,11.90
2019-04-28T18:43:24.738Z,11.80
2019-04-28T18:45:55.339Z,11.90
2019-04-28T18:48:27.373Z,11.80
2019-04-28T18:50:57.471Z,11.70
2019-04-28T18:53:28.070Z,11.60
2019-04-28T18:55:58.751Z,11.50
2019-04-28T18:58:32.313Z,11.40
2019-04-28T19:01:21.552Z,11.40
2019-04-28T19:03:53.865Z,11.40
2019-04-28T19:06:25.315Z,11.30
2019-04-28T19:09:07.259Z,11.20
2019-04-28T19:11:46.174Z,11.10
2019-04-28T19:14:44.948Z,11.10
2019-04-28T19:17:28.443Z,11.00
2019-04-28T19:19:59.454Z,10.90
2019-04-28T19:22:29.755Z,10.80
2019-04-28T19:25:03.256Z,10.80
2019-04-28T19:27:35.253Z,10.70
2019-04-28T19:33:45.150Z,10.50
2019-04-28T19:36:14.995Z,10.30
2019-04-28T19:38:44.839Z,10.30
2019-04-28T19:41:14.738Z,10.20
2019-04-28T19:47:21.773Z,10.10
2019-04-28T19:49:51.651Z,10.00
2019-04-28T19:52:21.477Z,10.00
2019-04-28T19:55:18.221Z,9.90
2019-04-28T20:04:01.521Z,9.90
2019-04-28T20:06:31.501Z,9.90
2019-04-28T20:09:01.293Z,9.90
2019-04-28T20:11:31.157Z,9.90
2019-04-28T20:14:00.981Z,9.90
2019-04-28T20:16:30.791Z,9.90
2019-04-28T20:19:00.825Z,9.90
2019-04-28T20:21:30.689Z,10.00
2019-04-28T20:24:00.773Z,10.10
2019-04-28T20:26:30.600Z,10.10
2019-04-28T20:32:45.756Z,10.10
2019-04-28T20:35:18.515Z,10.10
2019-04-28T20:38:02.624Z,10.20
2019-04-28T20:40:38.235Z,10.20
2019-04-28T20:43:18.955Z,10.10
2019-04-28T20:45:48.771Z,10.10
2019-04-28T20:48:18.688Z,10.10
2019-04-28T20:50:48.403Z,10.10
2019-04-28T20:53:19.403Z,10.10
2019-04-28T20:55:49.410Z,10.10
2019-04-28T21:02:30.962Z,10.00
2019-04-28T21:05:00.876Z,10.10
2019-04-28T21:07:30.759Z,10.10
2019-04-28T21:10:00.803Z,10.00
2019-04-28T21:12:30.686Z,10.00
2019-04-28T21:15:00.482Z,10.00
2019-04-28T21:17:30.411Z,10.00
2019-04-28T21:20:00.517Z,10.00
2019-04-28T21:22:30.486Z,10.00
2019-04-28T21:25:00.421Z,10.00
2019-04-28T21:27:30.278Z,10.00
2019-04-28T21:37:04.072Z,9.70
2019-04-28T21:39:33.910Z,9.60
2019-04-28T21:42:05.437Z,9.60
2019-04-28T21:44:53.088Z,9.60
2019-04-28T21:47:26.650Z,9.60
2019-04-28T21:49:56.499Z,9.60
2019-04-28T21:52:26.419Z,9.50
2019-04-28T21:54:56.428Z,9.50
2019-04-28T21:57:26.278Z,9.30
2019-04-28T22:03:28.114Z,9.20
2019-04-28T22:05:58.066Z,9.00
2019-04-28T22:08:27.992Z,8.90
2019-04-28T22:10:57.931Z,8.80
2019-04-28T22:13:27.934Z,8.80
2019-04-28T22:15:57.649Z,8.70
2019-04-28T22:18:27.579Z,8.70
2019-04-28T22:20:57.524Z,8.60
2019-04-28T22:23:36.563Z,8.60
2019-04-28T22:26:08.110Z,8.50
2019-04-28T22:28:37.970Z,8.40
2019-04-28T22:31:07.843Z,8.40
2019-04-28T22:33:37.738Z,8.30
2019-04-28T22:36:12.052Z,8.20
2019-04-28T22:38:42.098Z,8.10
2019-04-28T22:41:11.888Z,8.10
2019-04-28T22:43:41.800Z,8.00
2019-04-28T22:46:11.716Z,8.00
2019-04-28T22:48:41.470Z,8.00
2019-04-28T22:51:11.354Z,8.00
2019-04-28T22:53:41.152Z,7.90
2019-04-28T22:56:28.645Z,7.90
2019-04-28T22:59:03.301Z,7.80
2019-04-28T23:01:36.950Z,7.80
2019-04-28T23:04:22.299Z,7.80
2019-04-28T23:06:52.242Z,7.70
2019-04-28T23:09:22.140Z,7.60
2019-04-28T23:11:52.042Z,7.60
2019-04-28T23:18:02.594Z,7.60
2019-04-28T23:20:34.030Z,7.50
2019-04-28T23:23:05.579Z,7.50
2019-04-28T23:25:35.474Z,7.50
2019-04-28T23:28:05.462Z,7.50
2019-04-28T23:30:37.512Z,7.50
2019-04-28T23:33:07.440Z,7.50
2019-04-28T23:35:37.141Z,7.50
2019-04-28T23:38:06.906Z,7.40
2019-04-28T23:40:38.230Z,7.40
2019-04-28T23:43:11.840Z,7.30
2019-04-28T23:49:22.346Z,7.30
2019-04-28T23:52:11.210Z,7.30
2019-04-28T23:54:42.940Z,7.20
2019-04-28T23:57:12.876Z,7.10
2019-04-28T23:59:42.822Z,7.10
